Ganges, Ohio
Current Conditions -  °F | °C
As of 6:52 AM on Friday 31 Oct 2014 (Local Time) from KMFD Reporting Station
Overcast Overcast  
Wind Chill: 37°   Ceiling: 4700
Heat Index: 41°   Visibility: 10mi
Dew Point: 34°   Wind: 6mph
Humidity: 76%   Direction: 190°S
Pressure: 29.94"   Gusts: NA
Location:  40.8848°N, 82.6515°W
Report Text: KMFD 311052Z 19005KT 10SM OVC047 05/01 A2994 RMK AO2 SLP145 T00500011
Loading
Personal Weather Stations






























Interactive Weather Map
Tropical Storm Tracking
New forecast layout! Learn more

10-Day Weather Forecast

Advertisements
Track Severe Weather on mobile